Aviation Digital Data Service (ADDS)

Output produced by TAFs form (0345 UTC 19 July 2018)
found at http://www.aviationweather.gov/adds/tafs/
 
KRNH 190302Z 1903/1924 11004KT P6SM BKN250 
     FM191200 12005KT P6SM OVC050 
     FM191400 14010KT P6SM VCSH SCT020 OVC040 
     PROB30 1914/1920 6SM -RA